Search for airport 
image banner adimage banner adimage banner ad
image banner ad

6IA1 - Loring Hospital

Located in Sac City, United States

ICAO - 6IA1, IATA -

Data provided by Airmate  

General information

Coordinates: N42°25'8" W94°58'42"
Elevation is 1219 feet MSL.
Magnetic variation is 05° East
View others Airports in Iowa

Operational data

Special qualification required
Current time UTC:
Current local time:
Weather at : KSLB - Storm Lake Muni ( 29 km )
METAR: KSLB 181755Z AUTO 14009KT 10SM CLR 29/11 A2990 RMK AO2
View NOTAMs / SUP AIP / TFR affecting this airport [VIEW]
Communications frequencies: [VIEW]

Runways:

Airport contact information

Address: Sac City United States

Satellite view of 6IA1